Time;durP1;ratioP1;P1;durP2;ratioP2;P2;SDS_P1;SDS_P2;PMS_P1;PMS_P2;Temp;Humidity;BMP_temperature;BMP_pressure;BME280_temperature;BME280_humidity;BME280_pressure;Samples;Min_cycle;Max_cycle;Signal;HPM_P1;HPM_P2
2023/06/06 00:00:37;;;;;;;6.53;2.70;;;13.20;97.20;;;;;;5034297;28;20045;-53
2023/06/06 00:03:04;;;;;;;7.32;2.90;;;13.20;97.30;;;;;;5033825;28;20056;-57
2023/06/06 00:05:31;;;;;;;7.35;3.20;;;13.10;97.50;;;;;;5034181;28;20046;-54
2023/06/06 00:07:58;;;;;;;7.22;2.85;;;13.10;97.50;;;;;;5033872;28;20041;-54
2023/06/06 00:10:25;;;;;;;9.10;3.17;;;13.10;97.50;;;;;;5032872;28;20041;-57
2023/06/06 00:12:52;;;;;;;7.60;3.13;;;13.10;97.50;;;;;;5033668;28;20111;-54
2023/06/06 00:15:19;;;;;;;9.43;3.53;;;13.00;97.60;;;;;;5033899;28;20037;-57
2023/06/06 00:17:48;;;;;;;7.57;2.85;;;13.00;97.60;;;;;;5033475;28;20497;-57
2023/06/06 00:20:16;;;;;;;6.70;3.03;;;13.00;97.60;;;;;;5033534;28;20048;-54
2023/06/06 00:22:43;;;;;;;7.55;3.35;;;13.00;97.60;;;;;;5033666;28;20045;-54
2023/06/06 00:25:10;;;;;;;7.28;3.03;;;13.00;97.80;;;;;;5033517;28;20056;-52
2023/06/06 00:27:37;;;;;;;7.55;3.28;;;13.00;98.00;;;;;;5033089;28;20099;-52
2023/06/06 00:30:04;;;;;;;10.40;3.28;;;13.00;97.70;;;;;;5033941;28;20045;-53
2023/06/06 00:32:31;;;;;;;7.82;2.72;;;13.00;97.70;;;;;;5033958;28;20047;-51
2023/06/06 00:34:58;;;;;;;9.93;3.47;;;12.90;97.70;;;;;;5032697;28;20044;-55
2023/06/06 00:37:25;;;;;;;9.45;3.08;;;12.90;97.70;;;;;;5033347;28;20554;-57
2023/06/06 00:39:52;;;;;;;8.40;3.10;;;12.80;97.70;;;;;;5033701;28;20047;-56
2023/06/06 00:42:18;;;;;;;7.95;3.05;;;12.80;97.90;;;;;;5033456;28;20041;-55
2023/06/06 00:44:46;;;;;;;5.72;3.53;;;12.70;97.70;;;;;;5033318;28;20588;-55
2023/06/06 00:47:13;;;;;;;10.30;3.53;;;12.80;97.90;;;;;;5032725;28;20500;-58
2023/06/06 00:49:39;;;;;;;8.65;3.17;;;12.80;97.80;;;;;;5033701;28;20041;-54
2023/06/06 00:52:06;;;;;;;11.68;3.83;;;12.70;97.90;;;;;;5032519;28;20354;-56
2023/06/06 00:54:34;;;;;;;8.05;3.53;;;12.60;98.10;;;;;;5033385;28;20543;-53
2023/06/06 00:57:00;;;;;;;7.70;3.08;;;12.60;98.10;;;;;;5031992;28;20151;-52
2023/06/06 00:59:27;;;;;;;8.07;3.38;;;12.60;98.10;;;;;;5031750;28;20045;-56
2023/06/06 01:01:54;;;;;;;9.95;3.80;;;12.60;98.10;;;;;;5033629;28;20394;-54
2023/06/06 01:04:24;;;;;;;9.63;3.33;;;12.60;98.10;;;;;;5031943;28;20041;-52
2023/06/06 01:06:51;;;;;;;9.75;3.88;;;12.70;98.20;;;;;;5031834;28;20050;-58
2023/06/06 01:09:19;;;;;;;8.23;3.40;;;12.70;98.10;;;;;;5033166;28;20037;-56
2023/06/06 01:11:46;;;;;;;7.63;3.60;;;12.70;98.10;;;;;;5033047;28;20042;-55
2023/06/06 01:14:13;;;;;;;10.75;3.85;;;12.70;98.10;;;;;;5033605;28;20044;-56
2023/06/06 01:16:39;;;;;;;10.90;4.15;;;12.70;98.10;;;;;;5032895;28;20407;-53
2023/06/06 01:19:09;;;;;;;8.52;3.25;;;12.70;98.10;;;;;;5033090;28;20494;-56
2023/06/06 01:21:35;;;;;;;6.85;3.33;;;12.60;98.20;;;;;;5032146;28;20041;-52
2023/06/06 01:24:02;;;;;;;8.98;3.33;;;12.60;98.40;;;;;;5032100;28;20439;-51
2023/06/06 01:26:29;;;;;;;10.20;3.97;;;12.60;98.40;;;;;;5031611;28;20111;-57
2023/06/06 01:28:56;;;;;;;9.00;3.50;;;12.60;98.40;;;;;;5033484;28;20551;-56
2023/06/06 01:31:23;;;;;;;10.07;3.80;;;12.60;98.60;;;;;;5031639;28;20056;-56
2023/06/06 01:33:50;;;;;;;6.97;3.75;;;12.60;98.60;;;;;;5015475;28;20041;-57
2023/06/06 01:36:18;;;;;;;12.23;4.88;;;12.60;98.70;;;;;;5033000;28;20099;-52
2023/06/06 01:38:45;;;;;;;10.93;3.83;;;12.60;98.60;;;;;;5032904;28;20057;-50
2023/06/06 01:41:14;;;;;;;7.72;3.80;;;12.50;98.70;;;;;;5031371;28;20141;-55
2023/06/06 01:43:41;;;;;;;6.88;3.53;;;12.50;98.80;;;;;;5033578;28;20388;-52
2023/06/06 01:46:08;;;;;;;11.25;4.03;;;12.40;99.00;;;;;;5032647;28;20415;-55
2023/06/06 01:48:34;;;;;;;12.95;3.83;;;12.40;99.10;;;;;;5032059;28;20428;-54
2023/06/06 01:51:01;;;;;;;11.18;3.92;;;12.40;99.20;;;;;;5031895;28;20388;-53
2023/06/06 01:53:28;;;;;;;9.68;3.75;;;12.40;98.90;;;;;;5031614;28;20515;-51
2023/06/06 01:55:55;;;;;;;8.40;4.07;;;12.40;99.00;;;;;;5032803;28;20046;-57
2023/06/06 01:58:22;;;;;;;7.95;3.97;;;12.50;99.10;;;;;;5032774;28;20100;-56
2023/06/06 02:00:49;;;;;;;9.57;3.92;;;12.50;99.00;;;;;;5036297;28;20042;-53
2023/06/06 02:03:16;;;;;;;11.93;4.30;;;12.50;99.00;;;;;;5034969;28;20045;-54
2023/06/06 02:05:45;;;;;;;6.40;4.10;;;12.50;99.10;;;;;;5035232;28;20132;-52
2023/06/06 02:08:12;;;;;;;8.10;3.92;;;12.50;99.10;;;;;;5034783;28;20500;-55
2023/06/06 02:10:39;;;;;;;8.02;3.92;;;12.40;99.20;;;;;;5035272;28;20049;-54
2023/06/06 02:13:06;;;;;;;7.32;3.47;;;12.40;99.30;;;;;;5034701;28;20044;-54
2023/06/06 02:15:33;;;;;;;11.98;4.32;;;12.30;99.40;;;;;;5034747;28;20046;-57
2023/06/06 02:18:00;;;;;;;10.27;3.75;;;12.40;99.40;;;;;;5034805;28;20048;-56
2023/06/06 02:20:28;;;;;;;9.02;4.07;;;12.40;99.20;;;;;;5035962;28;20095;-52
2023/06/06 02:22:55;;;;;;;10.02;4.18;;;12.40;99.20;;;;;;5035048;28;20378;-53
2023/06/06 02:25:23;;;;;;;10.10;4.13;;;12.40;99.20;;;;;;5035558;28;20476;-52
2023/06/06 02:27:50;;;;;;;8.85;4.15;;;12.30;99.30;;;;;;5035546;28;20136;-57
2023/06/06 02:30:17;;;;;;;9.63;4.18;;;12.30;99.40;;;;;;5035865;28;20417;-55
2023/06/06 02:32:46;;;;;;;9.40;4.00;;;12.30;99.50;;;;;;5034750;28;20084;-54
2023/06/06 02:35:16;;;;;;;7.82;3.97;;;12.30;99.50;;;;;;5034232;28;20417;-55
2023/06/06 02:37:42;;;;;;;11.45;4.22;;;12.30;99.60;;;;;;5035652;28;20055;-50
2023/06/06 02:40:10;;;;;;;7.75;3.85;;;12.30;99.50;;;;;;5034762;28;20554;-53
2023/06/06 02:42:40;;;;;;;9.75;3.97;;;12.40;99.50;;;;;;5034187;28;20044;-54
2023/06/06 02:45:08;;;;;;;7.80;3.75;;;12.40;99.50;;;;;;5034483;28;20145;-52
2023/06/06 02:47:35;;;;;;;10.98;4.30;;;12.40;99.50;;;;;;5017656;28;20038;-54
2023/06/06 02:50:02;;;;;;;10.07;4.00;;;12.40;99.60;;;;;;5034423;28;20073;-55
2023/06/06 02:52:31;;;;;;;7.97;3.60;;;12.40;99.50;;;;;;5035426;28;20041;-54
2023/06/06 02:54:58;;;;;;;8.45;3.70;;;12.40;99.60;;;;;;5035356;28;20041;-54
2023/06/06 02:57:25;;;;;;;8.80;3.50;;;12.40;99.60;;;;;;5035529;28;20045;-54
2023/06/06 02:59:52;;;;;;;9.27;3.85;;;12.40;99.60;;;;;;5033814;28;20072;-53
2023/06/06 03:02:19;;;;;;;7.75;3.72;;;12.40;99.70;;;;;;5035679;28;20073;-54
2023/06/06 03:04:46;;;;;;;8.43;3.55;;;12.30;99.80;;;;;;5034305;28;20408;-55
2023/06/06 03:07:13;;;;;;;8.10;3.63;;;12.30;99.90;;;;;;5034994;28;20037;-52
2023/06/06 03:09:40;;;;;;;10.63;4.22;;;12.30;99.90;;;;;;5033527;28;20136;-53
2023/06/06 03:12:11;;;;;;;8.68;3.70;;;12.20;99.90;;;;;;5034041;28;20087;-54
2023/06/06 03:14:38;;;;;;;7.47;3.65;;;12.30;99.90;;;;;;5034870;28;20045;-55
2023/06/06 03:17:22;;;;;;;6.93;3.35;;;12.20;99.90;;;;;;5035138;28;20393;-52
2023/06/06 03:19:49;;;;;;;5.53;3.15;;;12.30;99.90;;;;;;5033608;28;20141;-56
2023/06/06 03:22:16;;;;;;;8.38;3.63;;;12.30;99.90;;;;;;5033812;28;20053;-56
2023/06/06 03:24:45;;;;;;;10.20;4.25;;;12.30;99.90;;;;;;5033436;28;20443;-52
2023/06/06 03:27:13;;;;;;;11.32;4.05;;;12.30;99.90;;;;;;5033554;28;20045;-54
2023/06/06 03:29:40;;;;;;;6.80;3.80;;;12.30;99.90;;;;;;5033316;28;20041;-55
2023/06/06 03:32:07;;;;;;;7.90;3.70;;;12.40;99.90;;;;;;5033509;28;20095;-55
2023/06/06 03:34:34;;;;;;;8.57;3.72;;;12.30;99.90;;;;;;5034679;28;20041;-55
2023/06/06 03:37:02;;;;;;;10.15;3.83;;;12.30;99.80;;;;;;5033157;28;20072;-55
2023/06/06 03:39:29;;;;;;;8.30;4.40;;;12.20;99.80;;;;;;5033023;28;20129;-53
2023/06/06 03:41:55;;;;;;;10.23;3.80;;;12.20;99.90;;;;;;5033326;28;20042;-52
2023/06/06 03:44:23;;;;;;;6.50;3.35;;;12.20;99.90;;;;;;5033444;28;20111;-51
2023/06/06 03:46:50;;;;;;;10.82;3.70;;;12.20;99.90;;;;;;5033141;28;20046;-55
2023/06/06 03:49:17;;;;;;;8.55;3.92;;;12.20;99.90;;;;;;5034354;28;20499;-57
2023/06/06 03:51:43;;;;;;;7.60;3.70;;;12.20;99.90;;;;;;5033004;28;20469;-57
2023/06/06 03:54:12;;;;;;;9.68;3.42;;;12.20;99.90;;;;;;5033232;28;20037;-54
2023/06/06 03:56:42;;;;;;;7.53;3.63;;;12.20;99.90;;;;;;5034161;28;20485;-54
2023/06/06 03:59:12;;;;;;;10.27;4.30;;;12.20;99.90;;;;;;5034267;28;20476;-54
2023/06/06 04:01:40;;;;;;;8.88;3.80;;;12.20;99.90;;;;;;5034262;28;20065;-53
2023/06/06 04:04:09;;;;;;;10.68;4.05;;;12.20;99.90;;;;;;5032787;28;20053;-56
2023/06/06 04:06:37;;;;;;;7.60;3.70;;;12.20;99.90;;;;;;5034097;28;20459;-57
2023/06/06 04:09:10;;;;;;;13.10;4.15;;;12.20;99.90;;;;;;5034039;28;20128;-55
2023/06/06 04:11:37;;;;;;;11.70;3.83;;;12.30;99.90;;;;;;5032887;28;20069;-51
2023/06/06 04:14:05;;;;;;;8.50;3.92;;;12.30;99.90;;;;;;5032625;28;20037;-55
2023/06/06 04:16:31;;;;;;;10.20;3.97;;;12.30;99.90;;;;;;5032411;28;20065;-52
2023/06/06 04:18:58;;;;;;;8.93;4.10;;;12.20;99.90;;;;;;5034005;28;20053;-51
2023/06/06 04:21:26;;;;;;;8.35;3.67;;;12.30;99.90;;;;;;5015929;28;20052;-53
2023/06/06 04:23:53;;;;;;;7.18;3.83;;;12.20;99.90;;;;;;5032932;28;20044;-55
2023/06/06 04:26:22;;;;;;;9.18;4.05;;;12.30;99.90;;;;;;5032204;28;20057;-51
2023/06/06 04:28:52;;;;;;;6.60;3.50;;;12.30;99.90;;;;;;5032206;28;20041;-52
2023/06/06 04:31:19;;;;;;;8.43;4.15;;;12.40;99.90;;;;;;5033581;28;20120;-53
2023/06/06 04:33:53;;;;;;;10.30;4.10;;;12.40;99.90;;;;;;5032279;28;20052;-53
2023/06/06 04:36:25;;;;;;;10.77;4.00;;;12.40;99.90;;;;;;5032457;28;20045;-56
2023/06/06 04:39:00;;;;;;;11.27;4.00;;;12.40;99.90;;;;;;5032653;28;20041;-57
2023/06/06 04:41:31;;;;;;;8.35;4.40;;;12.40;99.90;;;;;;5032572;28;20041;-56
2023/06/06 04:44:02;;;;;;;8.98;4.05;;;12.40;99.90;;;;;;5032672;28;20065;-56
2023/06/06 04:46:29;;;;;;;11.85;4.13;;;12.40;99.90;;;;;;5033494;28;20045;-52
2023/06/06 04:48:59;;;;;;;10.00;3.92;;;12.50;99.90;;;;;;5033308;28;20041;-54
2023/06/06 04:51:29;;;;;;;8.63;4.00;;;12.50;99.90;;;;;;5032228;28;20516;-54
2023/06/06 04:53:57;;;;;;;8.70;3.65;;;12.50;99.90;;;;;;5033470;28;20069;-54
2023/06/06 04:56:24;;;;;;;8.52;3.70;;;12.50;99.90;;;;;;5033945;28;20046;-50
2023/06/06 04:58:53;;;;;;;8.43;3.45;;;12.50;99.90;;;;;;5033476;28;20049;-53
2023/06/06 05:01:21;;;;;;;7.30;3.55;;;12.50;99.90;;;;;;5033353;28;20376;-54
2023/06/06 05:03:47;;;;;;;10.13;3.47;;;12.50;99.90;;;;;;5033213;28;20053;-53
2023/06/06 05:06:14;;;;;;;8.40;3.63;;;12.50;99.90;;;;;;5033544;28;20045;-54
2023/06/06 05:08:44;;;;;;;9.18;3.53;;;12.50;99.90;;;;;;5033178;28;20137;-52
2023/06/06 05:11:11;;;;;;;10.48;3.67;;;12.50;99.90;;;;;;5033354;28;20116;-54
2023/06/06 05:13:38;;;;;;;7.85;3.33;;;12.60;99.90;;;;;;5033326;28;20037;-54
2023/06/06 05:16:05;;;;;;;7.63;3.67;;;12.70;99.80;;;;;;5033163;28;20065;-53
2023/06/06 05:18:32;;;;;;;8.90;3.90;;;12.70;99.90;;;;;;5033119;28;20048;-52
2023/06/06 05:21:02;;;;;;;9.85;3.67;;;12.70;99.80;;;;;;5033188;28;20127;-51
2023/06/06 05:23:29;;;;;;;7.22;3.90;;;12.70;99.80;;;;;;5033555;28;20041;-54
2023/06/06 05:25:57;;;;;;;8.32;3.53;;;12.70;99.90;;;;;;5033073;28;20411;-53
2023/06/06 05:28:23;;;;;;;10.13;3.63;;;12.60;99.80;;;;;;5033421;28;20038;-53
2023/06/06 05:30:51;;;;;;;11.68;4.05;;;12.70;99.70;;;;;;5033610;28;20053;-56
2023/06/06 05:33:18;;;;;;;10.88;3.92;;;12.80;99.70;;;;;;5034073;28;20044;-56
2023/06/06 05:35:45;;;;;;;5.93;3.47;;;12.80;99.60;;;;;;5037030;28;20104;-55
2023/06/06 05:38:12;;;;;;;8.45;3.67;;;12.80;99.70;;;;;;5037173;28;20447;-57
2023/06/06 05:40:39;;;;;;;9.43;3.33;;;12.90;99.70;;;;;;5036852;28;20435;-54
2023/06/06 05:43:05;;;;;;;9.15;3.63;;;12.90;99.60;;;;;;5035564;28;20046;-53
2023/06/06 05:45:32;;;;;;;7.68;3.53;;;13.00;99.60;;;;;;5035481;28;20041;-56
2023/06/06 05:48:00;;;;;;;9.27;3.95;;;13.00;99.50;;;;;;5036862;28;20076;-52
2023/06/06 05:50:26;;;;;;;12.57;4.05;;;13.10;99.60;;;;;;5036996;28;20037;-53
2023/06/06 05:52:54;;;;;;;9.75;3.50;;;13.20;99.50;;;;;;5036532;28;20033;-55
2023/06/06 05:55:20;;;;;;;11.60;4.00;;;13.10;99.10;;;;;;5036299;28;20491;-55
2023/06/06 05:57:48;;;;;;;10.73;3.50;;;13.20;99.20;;;;;;5036700;28;20041;-55
2023/06/06 06:00:15;;;;;;;9.80;4.10;;;13.30;99.30;;;;;;5036309;28;20046;-54
2023/06/06 06:02:42;;;;;;;7.90;3.22;;;13.30;99.10;;;;;;5036833;28;20079;-57
2023/06/06 06:05:09;;;;;;;10.85;4.10;;;13.30;99.20;;;;;;5036683;28;20444;-54
2023/06/06 06:07:35;;;;;;;9.80;3.60;;;13.30;99.10;;;;;;5036740;28;20049;-53
2023/06/06 06:10:02;;;;;;;7.55;3.35;;;13.30;99.20;;;;;;5036688;28;20034;-57
2023/06/06 06:12:29;;;;;;;9.75;3.58;;;13.40;98.90;;;;;;5035012;28;20049;-54
2023/06/06 06:14:56;;;;;;;7.90;3.70;;;13.50;98.90;;;;;;5034801;28;20107;-54
2023/06/06 06:17:22;;;;;;;9.63;3.65;;;13.40;99.00;;;;;;5035194;28;20059;-58
2023/06/06 06:19:49;;;;;;;10.63;3.80;;;13.50;98.90;;;;;;5034828;28;20052;-55
2023/06/06 06:22:16;;;;;;;8.45;3.75;;;13.50;98.70;;;;;;5036017;28;20129;-54
2023/06/06 06:24:43;;;;;;;5.63;3.00;;;13.50;98.70;;;;;;5035307;28;20054;-55
2023/06/06 06:27:10;;;;;;;10.18;4.05;;;13.60;98.70;;;;;;5035884;28;20096;-55
2023/06/06 06:29:36;;;;;;;11.13;3.58;;;13.70;98.70;;;;;;5035568;28;20044;-52
2023/06/06 06:32:03;;;;;;;8.25;3.40;;;13.70;98.70;;;;;;5035726;28;20060;-52
2023/06/06 06:34:30;;;;;;;8.40;3.63;;;13.90;98.50;;;;;;5034897;28;20041;-58
2023/06/06 06:36:57;;;;;;;7.15;3.15;;;13.90;98.40;;;;;;5035123;28;20046;-55
2023/06/06 06:39:24;;;;;;;12.18;4.00;;;14.00;98.20;;;;;;5033833;28;20374;-53
2023/06/06 06:41:52;;;;;;;6.90;3.70;;;14.00;98.30;;;;;;5035333;28;20116;-53
2023/06/06 06:44:19;;;;;;;9.77;3.47;;;14.20;98.10;;;;;;5033122;28;20052;-51
2023/06/06 06:46:46;;;;;;;8.50;3.10;;;14.20;97.90;;;;;;5033625;28;20044;-53
2023/06/06 06:49:13;;;;;;;7.85;3.60;;;14.30;97.70;;;;;;5034924;28;20045;-53
2023/06/06 06:51:41;;;;;;;8.15;3.47;;;14.30;97.60;;;;;;5034958;28;20543;-52
2023/06/06 06:54:08;;;;;;;6.80;3.38;;;14.30;97.80;;;;;;5034808;28;20124;-56
2023/06/06 06:56:36;;;;;;;7.28;3.58;;;14.20;97.30;;;;;;5034946;28;20495;-57
2023/06/06 06:59:05;;;;;;;11.88;3.38;;;14.30;97.40;;;;;;5034807;28;20091;-55
2023/06/06 07:01:32;;;;;;;7.13;3.60;;;14.40;97.10;;;;;;5034519;28;20583;-54
2023/06/06 07:03:59;;;;;;;10.35;3.63;;;14.50;96.80;;;;;;5034742;28;20419;-55
2023/06/06 07:06:27;;;;;;;10.48;3.50;;;14.50;96.90;;;;;;5034921;28;20061;-53
2023/06/06 07:08:54;;;;;;;7.40;3.63;;;14.70;96.80;;;;;;5034293;28;20125;-51
2023/06/06 07:11:22;;;;;;;10.07;3.63;;;14.70;96.70;;;;;;5034576;28;20552;-53
2023/06/06 07:13:48;;;;;;;11.70;3.95;;;14.70;96.60;;;;;;5034733;28;20179;-54
2023/06/06 07:16:16;;;;;;;8.57;2.90;;;14.70;96.60;;;;;;5033972;28;20048;-54
2023/06/06 07:18:45;;;;;;;6.68;3.05;;;14.70;96.70;;;;;;5034575;28;20496;-53
2023/06/06 07:21:12;;;;;;;7.97;3.50;;;14.70;96.50;;;;;;5033647;28;20076;-57
2023/06/06 07:23:39;;;;;;;11.18;3.92;;;14.60;96.80;;;;;;5033687;28;20041;-55
2023/06/06 07:26:06;;;;;;;11.15;3.45;;;14.60;96.70;;;;;;5033140;28;20057;-53
2023/06/06 07:28:33;;;;;;;9.32;3.28;;;14.50;96.60;;;;;;5033233;28;20048;-52
2023/06/06 07:31:00;;;;;;;7.75;3.28;;;14.60;96.80;;;;;;5033398;28;20441;-51
2023/06/06 07:33:27;;;;;;;6.93;2.83;;;14.40;97.00;;;;;;5033273;28;20108;-56
2023/06/06 07:35:54;;;;;;;8.85;3.20;;;14.60;97.10;;;;;;5031879;28;20452;-57
2023/06/06 07:38:21;;;;;;;7.35;3.25;;;14.70;96.60;;;;;;5034034;28;20049;-53
2023/06/06 07:40:48;;;;;;;10.85;3.97;;;14.70;96.50;;;;;;5034666;28;20041;-53
2023/06/06 07:43:15;;;;;;;10.52;3.80;;;14.70;96.70;;;;;;5034543;28;20046;-56
2023/06/06 07:45:41;;;;;;;7.90;3.50;;;14.90;96.60;;;;;;5035006;28;20442;-56
2023/06/06 07:48:08;;;;;;;8.80;3.33;;;14.90;96.60;;;;;;5034116;28;20053;-54
2023/06/06 07:50:35;;;;;;;10.27;3.67;;;15.00;96.60;;;;;;5034387;28;20455;-52
2023/06/06 07:53:02;;;;;;;8.30;3.20;;;15.10;96.30;;;;;;5033064;28;20048;-55
2023/06/06 07:55:30;;;;;;;7.78;3.58;;;15.30;96.60;;;;;;5034719;28;20112;-55
2023/06/06 07:57:58;;;;;;;8.30;3.28;;;15.30;96.40;;;;;;5033900;28;20037;-53
2023/06/06 08:00:24;;;;;;;9.32;3.58;;;15.20;96.50;;;;;;5034276;28;20489;-53
2023/06/06 08:02:51;;;;;;;10.77;3.63;;;15.10;97.00;;;;;;5033416;28;20041;-53
2023/06/06 08:05:18;;;;;;;8.80;3.38;;;15.20;96.90;;;;;;5034081;28;20519;-53
2023/06/06 08:07:45;;;;;;;5.75;3.25;;;15.30;96.80;;;;;;5033976;28;20045;-54
2023/06/06 08:10:12;;;;;;;6.82;3.22;;;15.50;96.80;;;;;;5033806;28;20049;-58
2023/06/06 08:12:39;;;;;;;8.25;3.10;;;15.60;96.70;;;;;;5033057;28;20076;-55
2023/06/06 08:15:06;;;;;;;6.30;3.10;;;15.40;96.30;;;;;;5034085;28;20107;-52
2023/06/06 08:17:33;;;;;;;9.77;3.20;;;15.50;96.40;;;;;;5033692;28;20972;-54
2023/06/06 08:20:00;;;;;;;6.38;2.90;;;15.60;96.00;;;;;;5033903;28;20065;-53
2023/06/06 08:22:27;;;;;;;9.43;3.80;;;15.60;95.60;;;;;;5034073;28;20047;-56
2023/06/06 08:24:54;;;;;;;6.72;3.17;;;15.80;95.50;;;;;;5032701;28;20045;-52
2023/06/06 08:27:21;;;;;;;9.23;3.78;;;15.90;95.20;;;;;;5033954;28;20556;-51
2023/06/06 08:29:48;;;;;;;11.07;3.47;;;15.90;95.40;;;;;;5033655;28;20049;-53
2023/06/06 08:32:15;;;;;;;9.43;3.05;;;15.90;95.40;;;;;;5033695;28;20460;-56
2023/06/06 08:34:42;;;;;;;10.95;3.33;;;15.90;95.70;;;;;;5033477;28;20068;-54
2023/06/06 08:37:08;;;;;;;6.95;3.05;;;16.00;95.70;;;;;;5033804;28;20066;-53
2023/06/06 08:39:35;;;;;;;6.78;3.40;;;15.90;95.70;;;;;;5033522;28;20049;-52
2023/06/06 08:42:02;;;;;;;10.77;3.85;;;15.80;95.60;;;;;;5033571;28;20091;-55
2023/06/06 08:44:29;;;;;;;7.70;3.25;;;16.00;95.80;;;;;;5033583;28;20042;-55
2023/06/06 08:46:59;;;;;;;8.88;2.97;;;16.20;95.60;;;;;;5033373;28;20037;-55
2023/06/06 08:49:27;;;;;;;8.85;2.92;;;16.10;95.00;;;;;;5033635;28;20511;-54
2023/06/06 08:51:54;;;;;;;6.68;3.30;;;15.80;95.40;;;;;;5032472;28;20136;-55
2023/06/06 08:54:21;;;;;;;7.35;3.40;;;15.70;95.70;;;;;;5033453;28;20049;-54
2023/06/06 08:56:48;;;;;;;10.25;3.42;;;15.90;95.90;;;;;;5033296;28;20034;-56
2023/06/06 08:59:15;;;;;;;9.98;3.63;;;16.10;95.90;;;;;;5033216;28;20869;-53
2023/06/06 09:01:42;;;;;;;13.27;4.05;;;16.10;95.80;;;;;;5033344;28;20088;-56
2023/06/06 09:04:09;;;;;;;22.50;5.40;;;16.20;95.70;;;;;;5033455;28;20041;-55
2023/06/06 09:06:40;;;;;;;7.03;3.17;;;16.20;95.60;;;;;;5033389;28;20121;-52
2023/06/06 09:09:09;;;;;;;6.88;3.10;;;16.20;95.70;;;;;;5036222;28;20377;-50
2023/06/06 09:11:36;;;;;;;8.82;3.28;;;16.00;96.00;;;;;;5037541;28;20120;-53
2023/06/06 09:14:03;;;;;;;7.70;3.20;;;15.80;96.40;;;;;;5037151;28;20550;-51
2023/06/06 09:16:29;;;;;;;5.53;2.88;;;15.80;96.60;;;;;;5037281;28;20176;-48
2023/06/06 09:18:56;;;;;;;7.30;3.25;;;15.90;96.50;;;;;;5037472;28;20076;-52
2023/06/06 09:21:23;;;;;;;6.95;3.10;;;16.00;96.10;;;;;;5037279;28;20048;-52
2023/06/06 09:23:50;;;;;;;7.55;3.05;;;16.00;96.50;;;;;;5036920;28;20037;-56
2023/06/06 09:26:17;;;;;;;6.90;2.90;;;16.00;96.00;;;;;;5036935;28;20073;-52
2023/06/06 09:28:44;;;;;;;12.25;3.50;;;16.00;96.10;;;;;;5035873;28;20120;-55
2023/06/06 09:31:11;;;;;;;8.95;3.45;;;16.10;96.10;;;;;;5042527;28;20067;-55
2023/06/06 09:33:38;;;;;;;8.98;3.30;;;16.20;95.90;;;;;;5037953;28;20497;-58
2023/06/06 09:36:05;;;;;;;11.10;3.15;;;16.30;95.80;;;;;;5036630;28;20042;-56
2023/06/06 09:38:33;;;;;;;7.70;3.38;;;16.50;95.50;;;;;;5036742;28;20120;-57
2023/06/06 09:41:00;;;;;;;11.00;3.80;;;16.50;95.30;;;;;;5036370;28;20552;-55
2023/06/06 09:43:28;;;;;;;6.50;3.20;;;16.40;95.10;;;;;;5037280;28;20458;-57
2023/06/06 09:45:55;;;;;;;7.78;3.05;;;16.50;95.40;;;;;;5036340;28;20049;-57
2023/06/06 09:48:22;;;;;;;7.85;3.00;;;16.50;95.30;;;;;;5036295;28;20409;-56
2023/06/06 09:50:49;;;;;;;6.32;3.17;;;16.50;95.50;;;;;;5036550;28;20366;-57
2023/06/06 09:53:16;;;;;;;7.88;2.95;;;16.30;95.50;;;;;;5036058;28;20041;-57
2023/06/06 09:55:43;;;;;;;7.65;3.40;;;16.20;95.90;;;;;;5036226;28;20075;-52
2023/06/06 09:58:10;;;;;;;8.35;3.00;;;16.10;96.00;;;;;;5032090;28;20044;-54
2023/06/06 10:00:37;;;;;;;9.10;3.25;;;15.90;95.80;;;;;;5035500;28;20038;-56
2023/06/06 10:03:06;;;;;;;8.57;3.10;;;16.10;96.00;;;;;;5034565;28;20052;-51
2023/06/06 10:05:33;;;;;;;7.97;3.20;;;16.20;95.90;;;;;;5035807;28;20100;-53
2023/06/06 10:08:00;;;;;;;8.88;3.90;;;16.30;95.80;;;;;;5034220;28;20128;-57
2023/06/06 10:10:27;;;;;;;7.57;3.28;;;16.30;96.00;;;;;;5035591;28;20072;-56
2023/06/06 10:12:55;;;;;;;9.63;3.15;;;16.30;96.10;;;;;;5035607;28;20095;-56
2023/06/06 10:15:22;;;;;;;5.97;2.97;;;16.10;96.20;;;;;;5034332;28;20399;-57
2023/06/06 10:17:48;;;;;;;8.60;3.28;;;16.10;96.20;;;;;;5035061;28;20033;-55
2023/06/06 10:20:16;;;;;;;10.35;3.28;;;16.10;96.40;;;;;;5037695;28;20128;-54
2023/06/06 10:22:43;;;;;;;10.57;3.38;;;16.10;96.30;;;;;;5035037;28;20041;-52
2023/06/06 10:25:13;;;;;;;9.30;3.20;;;16.30;96.30;;;;;;5035444;28;20404;-55
2023/06/06 10:27:40;;;;;;;5.57;3.00;;;16.50;95.60;;;;;;5034904;28;20080;-54
2023/06/06 10:30:07;;;;;;;8.60;2.88;;;16.70;95.30;;;;;;5035381;28;20116;-53
2023/06/06 10:32:34;;;;;;;6.03;3.15;;;16.80;95.10;;;;;;5035290;28;20120;-54
2023/06/06 10:35:01;;;;;;;12.18;3.50;;;16.90;94.80;;;;;;5034946;28;20038;-53
2023/06/06 10:37:29;;;;;;;7.18;3.30;;;16.90;94.90;;;;;;5034936;28;20041;-55
2023/06/06 10:39:56;;;;;;;5.28;3.10;;;16.90;94.80;;;;;;5034997;28;20469;-57
2023/06/06 10:42:25;;;;;;;7.18;3.42;;;16.70;94.90;;;;;;5035028;28;20041;-57
2023/06/06 10:44:51;;;;;;;9.43;3.20;;;16.40;95.80;;;;;;5035010;28;20052;-53
2023/06/06 10:47:18;;;;;;;9.38;3.13;;;16.40;95.60;;;;;;5034626;28;20611;-49
2023/06/06 10:49:45;;;;;;;8.27;3.05;;;16.30;95.70;;;;;;5038713;28;20041;-54
2023/06/06 10:52:13;;;;;;;6.53;2.95;;;16.50;95.80;;;;;;5034941;28;20091;-52
2023/06/06 10:54:39;;;;;;;10.02;3.13;;;16.70;95.60;;;;;;5034838;28;20034;-55
2023/06/06 10:57:06;;;;;;;9.02;3.05;;;16.50;95.70;;;;;;5034675;28;20481;-53
2023/06/06 10:59:33;;;;;;;9.95;3.65;;;16.40;95.80;;;;;;5034544;28;20088;-54
2023/06/06 11:02:00;;;;;;;7.32;3.10;;;16.40;95.80;;;;;;5034676;28;20054;-52
2023/06/06 11:04:27;;;;;;;8.63;3.10;;;16.40;96.00;;;;;;5034602;28;20037;-52
2023/06/06 11:06:54;;;;;;;7.18;3.10;;;16.60;95.90;;;;;;5034554;28;20045;-55
2023/06/06 11:09:21;;;;;;;6.63;2.83;;;16.50;95.90;;;;;;5034325;28;20038;-53
2023/06/06 11:11:48;;;;;;;8.35;3.13;;;16.40;96.10;;;;;;5034547;28;20080;-56
2023/06/06 11:14:15;;;;;;;8.43;3.20;;;16.30;96.10;;;;;;5034450;28;20476;-51
2023/06/06 11:16:45;;;;;;;8.38;3.05;;;16.40;96.30;;;;;;5034227;28;20120;-56
2023/06/06 11:19:14;;;;;;;7.93;2.83;;;16.60;95.70;;;;;;5034327;28;20077;-54
2023/06/06 11:21:41;;;;;;;9.38;3.38;;;16.80;95.40;;;;;;5033164;28;20120;-56
2023/06/06 11:24:08;;;;;;;6.57;2.90;;;16.90;95.30;;;;;;5034332;28;20046;-50
2023/06/06 11:26:35;;;;;;;7.22;3.30;;;17.10;95.00;;;;;;5033763;28;20049;-55
2023/06/06 11:29:02;;;;;;;4.68;2.78;;;17.30;95.10;;;;;;5033882;28;20107;-57
2023/06/06 11:31:30;;;;;;;8.82;2.90;;;17.40;95.30;;;;;;5033805;28;20045;-52
2023/06/06 11:33:57;;;;;;;4.55;2.92;;;17.70;94.20;;;;;;5034026;28;20033;-57
2023/06/06 11:36:24;;;;;;;7.53;3.80;;;17.60;94.30;;;;;;5034015;28;20069;-57
2023/06/06 11:38:55;;;;;;;7.68;2.90;;;17.60;93.90;;;;;;5032641;28;20099;-55
2023/06/06 11:41:21;;;;;;;12.23;3.17;;;17.70;93.80;;;;;;5033977;28;20037;-54
2023/06/06 11:43:48;;;;;;;5.75;2.90;;;17.60;93.90;;;;;;5033880;28;20881;-54
2023/06/06 11:46:15;;;;;;;7.50;3.22;;;17.60;93.70;;;;;;5033758;28;20033;-58
2023/06/06 11:48:42;;;;;;;6.95;2.97;;;17.50;94.00;;;;;;5033559;28;20443;-56
2023/06/06 11:51:09;;;;;;;6.53;2.83;;;17.40;93.80;;;;;;5037265;28;20476;-55
2023/06/06 11:53:36;;;;;;;5.80;2.90;;;17.50;94.30;;;;;;5033671;28;20099;-56
2023/06/06 11:56:04;;;;;;;5.95;2.83;;;17.70;94.10;;;;;;5033641;28;20049;-53
2023/06/06 11:58:31;;;;;;;8.00;3.30;;;17.80;94.00;;;;;;5033985;28;20477;-53
2023/06/06 12:00:57;;;;;;;6.55;3.20;;;18.10;93.70;;;;;;5034025;28;20080;-54
2023/06/06 12:03:27;;;;;;;4.85;3.33;;;18.20;93.30;;;;;;5033417;28;20060;-51
2023/06/06 12:05:54;;;;;;;5.32;3.10;;;18.20;93.60;;;;;;5033388;28;20416;-53
2023/06/06 12:08:21;;;;;;;6.32;3.20;;;18.20;93.30;;;;;;5036413;28;20061;-56
2023/06/06 12:10:48;;;;;;;8.63;2.95;;;18.10;93.50;;;;;;5035288;28;20079;-54
2023/06/06 12:13:15;;;;;;;11.85;3.42;;;18.10;93.50;;;;;;5034410;28;20069;-57
2023/06/06 12:15:42;;;;;;;5.65;2.58;;;18.10;93.20;;;;;;5035780;28;20432;-52
2023/06/06 12:18:08;;;;;;;6.35;3.00;;;18.10;93.50;;;;;;5031795;28;20049;-55
2023/06/06 12:20:35;;;;;;;48.35;7.32;;;18.00;93.40;;;;;;5035798;28;20372;-55
2023/06/06 12:23:02;;;;;;;36.92;5.25;;;18.00;93.30;;;;;;5033403;28;20463;-54
2023/06/06 12:25:29;;;;;;;8.27;3.28;;;18.20;93.20;;;;;;5032276;28;20041;-57
2023/06/06 12:27:56;;;;;;;10.50;3.00;;;18.30;93.10;;;;;;5035727;28;20057;-58
2023/06/06 12:30:22;;;;;;;5.22;2.83;;;18.30;93.30;;;;;;5033194;28;20049;-57
2023/06/06 12:32:49;;;;;;;6.13;2.80;;;18.40;93.00;;;;;;5033339;28;20061;-54
2023/06/06 12:35:17;;;;;;;8.60;3.10;;;18.60;92.90;;;;;;5035787;28;20037;-55
2023/06/06 12:37:45;;;;;;;6.60;2.92;;;18.70;92.80;;;;;;5032577;28;20053;-57
2023/06/06 12:40:11;;;;;;;7.65;3.05;;;18.70;92.60;;;;;;5037571;28;20120;-57
2023/06/06 12:42:39;;;;;;;6.20;3.03;;;18.80;92.60;;;;;;5031165;28;20056;-55